Time;durP1;ratioP1;P1;durP2;ratioP2;P2;SDS_P1;SDS_P2;PMS_P1;PMS_P2;Temp;Humidity;BMP_temperature;BMP_pressure;BME280_temperature;BME280_humidity;BME280_pressure;Samples;Min_cycle;Max_cycle;Signal;HPM_P1;HPM_P2
2022/02/21 00:02:25;;;;;;;2.17;0.50;;;;;;;;;;5041153;28;20183;-82
2022/02/21 00:05:16;;;;;;;0.40;0.20;;;;;;;;;;5059383;28;20252;-81
2022/02/21 00:08:20;;;;;;;0.93;0.60;;;;;;;;;;5058996;28;20186;-81
2022/02/21 00:11:02;;;;;;;1.97;0.60;;;;;;;;;;5038458;28;20190;-82
2022/02/21 00:13:28;;;;;;;0.97;0.40;;;;;;;;;;5042480;28;20216;-81
2022/02/21 00:15:55;;;;;;;1.00;0.57;;;;;;;;;;5039100;28;20202;-82
2022/02/21 00:18:21;;;;;;;1.67;0.50;;;;;;;;;;5057743;28;20183;-82
2022/02/21 00:21:14;;;;;;;0.70;0.43;;;;;;;;;;5055847;28;20186;-81
2022/02/21 00:23:42;;;;;;;2.33;0.60;;;;;;;;;;5057443;28;20285;-81
2022/02/21 00:32:42;;;;;;;1.40;0.60;;;;;;;;;;4952598;28;20343;-82
2022/02/21 00:35:24;;;;;;;0.53;0.40;;;;;;;;;;5058549;28;20586;-81
2022/02/21 00:37:52;;;;;;;1.43;0.53;;;;;;;;;;5059156;28;20178;-81
2022/02/21 00:46:42;;;;;;;0.80;0.50;;;;;;;;;;4958635;29;20192;-81
2022/02/21 00:49:26;;;;;;;1.67;0.50;;;;;;;;;;4939994;29;20629;-81
2022/02/21 00:55:06;;;;;;;;;;;;;;;;;;;;;
2022/02/21 01:07:16;;;;;;;0.50;0.50;;;;;;;;;;4886769;29;20190;-82
2022/02/21 01:12:33;;;;;;;0.50;0.50;;;;;;;;;;5049120;28;20236;-81
2022/02/21 01:15:21;;;;;;;;;;;;;;;;;;;;;
2022/02/21 01:18:21;;;;;;;1.33;0.50;;;;;;;;;;5054518;28;20267;-80
2022/02/21 01:21:32;;;;;;;1.07;0.30;;;;;;;;;;5057285;28;20184;-81
2022/02/21 01:24:34;;;;;;;1.73;0.50;;;;;;;;;;4945017;29;20212;-81
2022/02/21 01:27:16;;;;;;;;;;;;;;;;;;;;;
2022/02/21 01:29:54;;;;;;;2.00;0.40;;;;;;;;;;4957724;29;20281;-82
2022/02/21 01:32:20;;;;;;;1.13;0.33;;;;;;;;;;5025251;28;20281;-81
2022/02/21 01:34:49;;;;;;;0.37;0.37;;;;;;;;;;5060652;28;20185;-81
2022/02/21 01:37:23;;;;;;;1.07;0.40;;;;;;;;;;5059915;28;20246;-78
2022/02/21 01:39:53;;;;;;;1.40;0.40;;;;;;;;;;5054997;28;20206;-81
2022/02/21 01:42:19;;;;;;;1.73;0.50;;;;;;;;;;5053381;28;20175;-81
2022/02/21 01:45:12;;;;;;;0.30;0.30;;;;;;;;;;5040979;28;20233;-81
2022/02/21 01:47:48;;;;;;;0.80;0.40;;;;;;;;;;5051345;28;20187;-81
2022/02/21 01:50:22;;;;;;;0.53;0.30;;;;;;;;;;5056244;28;20200;-80
2022/02/21 01:53:02;;;;;;;;;;;;;;;;;;;;;
2022/02/21 01:55:53;;;;;;;1.53;0.60;;;;;;;;;;5077158;28;20202;-81
2022/02/21 01:58:40;;;;;;;1.40;0.50;;;;;;;;;;5072804;28;20169;-80
2022/02/21 02:01:55;;;;;;;;;;;;;;;;;;;;;
2022/02/21 02:05:10;;;;;;;0.63;0.50;;;;;;;;;;5036808;28;20276;-81
2022/02/21 02:11:19;;;;;;;0.90;0.57;;;;;;;;;;5059752;28;20184;-80
2022/02/21 02:14:07;;;;;;;2.30;0.70;;;;;;;;;;5054887;28;20319;-80
2022/02/21 02:17:27;;;;;;;0.47;0.40;;;;;;;;;;5067492;28;20207;-79
2022/02/21 02:19:32;;;;;;;1.23;0.90;;;;;;;;;;5047424;28;20178;-81
2022/02/21 02:22:10;;;;;;;1.40;0.60;;;;;;;;;;5070549;28;20166;-80
2022/02/21 02:28:14;;;;;;;;;;;;;;;;;;;;;
2022/02/21 02:30:58;;;;;;;2.00;0.70;;;;;;;;;;5065679;28;20248;-81
2022/02/21 02:33:54;;;;;;;0.60;0.43;;;;;;;;;;5068105;22;20218;-81
2022/02/21 02:36:57;;;;;;;2.53;0.40;;;;;;;;;;5055855;28;20221;-82
2022/02/21 02:39:46;;;;;;;2.50;0.67;;;;;;;;;;5048992;28;20528;-81
2022/02/21 02:42:47;;;;;;;1.77;0.47;;;;;;;;;;5046471;28;20416;-81
2022/02/21 02:48:39;;;;;;;0.70;0.40;;;;;;;;;;4957646;29;20186;-81
2022/02/21 02:51:31;;;;;;;1.03;0.50;;;;;;;;;;5014537;28;20504;-82
2022/02/21 02:54:16;;;;;;;1.03;0.40;;;;;;;;;;5002658;28;20198;-81
2022/02/21 03:00:39;;;;;;;1.23;0.60;;;;;;;;;;4995462;28;20208;-81
2022/02/21 03:03:31;;;;;;;2.03;0.60;;;;;;;;;;4970537;28;20210;-81
2022/02/21 03:06:08;;;;;;;1.37;0.80;;;;;;;;;;4996366;28;20184;-82
2022/02/21 03:08:44;;;;;;;1.93;0.67;;;;;;;;;;5016988;28;20638;-81
2022/02/21 03:11:13;;;;;;;2.17;0.60;;;;;;;;;;5019377;28;20587;-81
2022/02/21 03:13:51;;;;;;;2.20;0.50;;;;;;;;;;5018489;28;20261;-81
2022/02/21 03:16:46;;;;;;;1.80;0.57;;;;;;;;;;5022163;28;20195;-81
2022/02/21 03:26:00;;;;;;;0.60;0.40;;;;;;;;;;4996630;28;20187;-81
2022/02/21 03:28:50;;;;;;;0.83;0.47;;;;;;;;;;4997365;28;20190;-81
2022/02/21 03:31:44;;;;;;;;;;;;;;;;;;;;;
2022/02/21 03:34:32;;;;;;;0.90;0.50;;;;;;;;;;4998571;28;20310;-81
2022/02/21 03:37:10;;;;;;;1.67;1.00;;;;;;;;;;5015222;28;20221;-82
2022/02/21 03:40:00;;;;;;;1.37;0.50;;;;;;;;;;5019376;28;20544;-82
2022/02/21 03:42:44;;;;;;;0.50;0.50;;;;;;;;;;4980502;28;20664;-81
2022/02/21 03:48:20;;;;;;;1.57;0.50;;;;;;;;;;4977795;28;20257;-81
2022/02/21 03:51:12;;;;;;;0.73;0.33;;;;;;;;;;4973685;28;20195;-81
2022/02/21 03:53:41;;;;;;;1.67;0.40;;;;;;;;;;4972431;28;20208;-81
2022/02/21 03:56:45;;;;;;;1.33;0.50;;;;;;;;;;4976117;28;20622;-81
2022/02/21 03:59:29;;;;;;;1.37;0.43;;;;;;;;;;4973073;28;20194;-81
2022/02/21 04:05:18;;;;;;;0.73;0.60;;;;;;;;;;4937464;29;20182;-81
2022/02/21 04:07:49;;;;;;;1.60;0.40;;;;;;;;;;4947127;28;20214;-81
2022/02/21 04:10:30;;;;;;;2.77;0.57;;;;;;;;;;4977449;28;20180;-81
2022/02/21 04:12:58;;;;;;;1.67;0.60;;;;;;;;;;5024095;28;20202;-81
2022/02/21 04:15:39;;;;;;;0.93;0.60;;;;;;;;;;5032608;28;20175;-81
2022/02/21 04:21:38;;;;;;;0.60;0.30;;;;;;;;;;4934717;29;20634;-81
2022/02/21 04:24:20;;;;;;;1.73;0.50;;;;;;;;;;5031866;28;20198;-81
2022/02/21 04:29:52;;;;;;;0.50;0.50;;;;;;;;;;5034270;28;20196;-80
2022/02/21 04:35:34;;;;;;;;;;;;;;;;;;;;;
2022/02/21 04:41:24;;;;;;;1.17;0.50;;;;;;;;;;5008740;28;20187;-81
2022/02/21 04:44:01;;;;;;;0.63;0.33;;;;;;;;;;4995285;28;20210;-79
2022/02/21 04:46:32;;;;;;;0.97;0.40;;;;;;;;;;5035378;28;20176;-81
2022/02/21 04:49:07;;;;;;;0.47;0.40;;;;;;;;;;5039339;28;20171;-79
2022/02/21 04:51:57;;;;;;;2.07;0.30;;;;;;;;;;5028629;28;20201;-78
2022/02/21 04:54:57;;;;;;;1.87;0.60;;;;;;;;;;5029690;28;20227;-82
2022/02/21 04:57:31;;;;;;;1.07;0.63;;;;;;;;;;5029513;28;20331;-80
2022/02/21 05:03:40;;;;;;;1.17;0.60;;;;;;;;;;4986962;28;20207;-81
2022/02/21 05:06:14;;;;;;;2.60;0.70;;;;;;;;;;5011700;28;20569;-83
2022/02/21 05:08:43;;;;;;;0.57;0.50;;;;;;;;;;5029387;28;20201;-83
2022/02/21 05:11:37;;;;;;;;;;;;;;;;;;;;;
2022/02/21 05:14:18;;;;;;;1.07;0.40;;;;;;;;;;5029568;28;20286;-82
2022/02/21 05:17:02;;;;;;;1.67;0.60;;;;;;;;;;5027838;28;20201;-83
2022/02/21 05:19:53;;;;;;;0.80;0.50;;;;;;;;;;5040808;28;20253;-81
2022/02/21 05:22:27;;;;;;;1.10;0.43;;;;;;;;;;5026084;28;20712;-83
2022/02/21 05:28:10;;;;;;;0.77;0.47;;;;;;;;;;4937934;28;20182;-81
2022/02/21 05:30:57;;;;;;;1.83;0.63;;;;;;;;;;5042485;28;20179;-81
2022/02/21 05:36:23;;;;;;;1.03;0.57;;;;;;;;;;5043096;28;20686;-81
2022/02/21 05:38:55;;;;;;;2.83;0.40;;;;;;;;;;5043440;28;20182;-81
2022/02/21 05:41:26;;;;;;;0.20;0.20;;;;;;;;;;5042836;28;20527;-81
2022/02/21 05:44:20;;;;;;;0.63;0.17;;;;;;;;;;5043932;28;20620;-81
2022/02/21 05:46:49;;;;;;;0.20;0.10;;;;;;;;;;5044643;28;20199;-81
2022/02/21 05:49:32;;;;;;;0.20;0.20;;;;;;;;;;5044712;28;20660;-81
2022/02/21 05:52:07;;;;;;;0.20;0.20;;;;;;;;;;5015365;28;20173;-82
2022/02/21 05:54:49;;;;;;;;;;;;;;;;;;;;;
2022/02/21 05:57:18;;;;;;;0.43;0.30;;;;;;;;;;5043314;28;20279;-83
2022/02/21 06:00:04;;;;;;;1.70;0.20;;;;;;;;;;5038269;28;20628;-83
2022/02/21 06:15:43;;;;;;;1.77;0.50;;;;;;;;;;4903212;29;20208;-81
2022/02/21 06:18:23;;;;;;;1.17;0.53;;;;;;;;;;4903551;29;20184;-83
2022/02/21 06:20:54;;;;;;;1.57;0.30;;;;;;;;;;4904068;29;20418;-83
2022/02/21 06:23:23;;;;;;;1.10;0.40;;;;;;;;;;4956383;28;20214;-80
2022/02/21 06:25:56;;;;;;;1.23;0.60;;;;;;;;;;4979658;28;20174;-83
2022/02/21 06:28:25;;;;;;;1.53;0.60;;;;;;;;;;5038817;28;20260;-83
2022/02/21 06:33:56;;;;;;;0.93;0.57;;;;;;;;;;5077722;22;20237;-83
2022/02/21 06:36:22;;;;;;;0.73;0.60;;;;;;;;;;5051350;28;20206;-86
2022/02/21 06:38:48;;;;;;;4.43;0.60;;;;;;;;;;5055825;28;20167;-84
2022/02/21 06:41:17;;;;;;;2.43;1.00;;;;;;;;;;5056246;28;20224;-84
2022/02/21 06:43:53;;;;;;;3.80;0.60;;;;;;;;;;5026580;28;20206;-82
2022/02/21 06:46:22;;;;;;;1.53;0.60;;;;;;;;;;5019368;28;20183;-84
2022/02/21 06:48:48;;;;;;;2.60;0.70;;;;;;;;;;5055824;28;20181;-83
2022/02/21 06:51:20;;;;;;;4.50;0.90;;;;;;;;;;5056390;28;20201;-85
2022/02/21 06:53:51;;;;;;;1.33;0.40;;;;;;;;;;5038753;28;20255;-83
2022/02/21 06:56:19;;;;;;;3.37;1.00;;;;;;;;;;5043904;28;20240;-84
2022/02/21 06:58:48;;;;;;;1.53;0.60;;;;;;;;;;5044904;28;20170;-85
2022/02/21 07:01:17;;;;;;;2.50;0.60;;;;;;;;;;5064649;28;20180;-85
2022/02/21 07:03:43;;;;;;;1.00;0.60;;;;;;;;;;5038917;28;20218;-85
2022/02/21 07:06:12;;;;;;;1.20;0.70;;;;;;;;;;5056967;28;20210;-83
2022/02/21 07:08:38;;;;;;;2.40;0.83;;;;;;;;;;5054046;28;20174;-86
2022/02/21 07:11:08;;;;;;;2.00;0.93;;;;;;;;;;5038295;28;20629;-84
2022/02/21 07:13:40;;;;;;;2.30;0.90;;;;;;;;;;5054672;28;20197;-85
2022/02/21 07:16:21;;;;;;;2.77;1.07;;;;;;;;;;5029304;28;20202;-85
2022/02/21 07:18:47;;;;;;;0.90;0.77;;;;;;;;;;5034013;28;20203;-85
2022/02/21 07:21:14;;;;;;;1.93;1.00;;;;;;;;;;5054938;28;20205;-84
2022/02/21 07:23:43;;;;;;;3.13;0.70;;;;;;;;;;5038547;28;20222;-82
2022/02/21 07:26:12;;;;;;;4.23;1.70;;;;;;;;;;5056252;28;20218;-83
2022/02/21 07:28:38;;;;;;;1.50;1.40;;;;;;;;;;5035734;28;20176;-84
2022/02/21 07:31:07;;;;;;;3.53;2.00;;;;;;;;;;5055687;28;20643;-85
2022/02/21 07:33:33;;;;;;;1.20;0.60;;;;;;;;;;5033427;28;20217;-84
2022/02/21 07:35:59;;;;;;;1.60;0.90;;;;;;;;;;5037580;28;20692;-81
2022/02/21 07:38:26;;;;;;;3.17;0.80;;;;;;;;;;5037380;28;20261;-84
2022/02/21 07:40:52;;;;;;;1.73;0.60;;;;;;;;;;5052984;28;20682;-85
2022/02/21 07:43:18;;;;;;;3.13;0.70;;;;;;;;;;5055398;28;20269;-84
2022/02/21 07:45:53;;;;;;;2.00;0.77;;;;;;;;;;5055634;28;20216;-85
2022/02/21 07:48:19;;;;;;;4.33;0.80;;;;;;;;;;5037117;28;20191;-85
2022/02/21 07:51:03;;;;;;;2.10;0.87;;;;;;;;;;5036826;28;20187;-84
2022/02/21 07:53:32;;;;;;;1.50;0.63;;;;;;;;;;5037297;28;20206;-84
2022/02/21 07:56:37;;;;;;;;;;;;;;;;;;;;;
2022/02/21 07:59:06;;;;;;;3.07;0.73;;;;;;;;;;5048169;28;20721;-85
2022/02/21 08:01:38;;;;;;;2.07;0.93;;;;;;;;;;5036861;28;20185;-85
2022/02/21 08:04:13;;;;;;;3.13;1.00;;;;;;;;;;5054031;28;20278;-86
2022/02/21 08:06:51;;;;;;;4.53;1.17;;;;;;;;;;5053691;28;20202;-84
2022/02/21 08:09:23;;;;;;;6.17;1.00;;;;;;;;;;5053313;28;20177;-85
2022/02/21 08:11:57;;;;;;;3.30;1.00;;;;;;;;;;5051556;28;20171;-84
2022/02/21 08:14:23;;;;;;;2.80;0.87;;;;;;;;;;5035845;28;20540;-83
2022/02/21 08:16:55;;;;;;;2.93;1.30;;;;;;;;;;5053162;28;20220;-84
2022/02/21 08:19:21;;;;;;;4.00;1.30;;;;;;;;;;5036153;28;20193;-84
2022/02/21 08:21:47;;;;;;;2.73;1.13;;;;;;;;;;5035232;28;20182;-84
2022/02/21 08:24:20;;;;;;;3.90;1.27;;;;;;;;;;5036300;28;20272;-83
2022/02/21 08:26:50;;;;;;;5.53;1.70;;;;;;;;;;5050307;28;20180;-84
2022/02/21 08:29:16;;;;;;;6.40;1.50;;;;;;;;;;5034340;28;20547;-86
2022/02/21 08:31:44;;;;;;;3.10;1.33;;;;;;;;;;5054500;28;20569;-86
2022/02/21 08:34:14;;;;;;;4.60;1.67;;;;;;;;;;5036087;28;20420;-86
2022/02/21 08:36:44;;;;;;;6.17;1.73;;;;;;;;;;5058796;28;20206;-83
2022/02/21 08:39:10;;;;;;;9.23;2.00;;;;;;;;;;5060300;28;20184;-84
2022/02/21 08:41:43;;;;;;;5.17;1.33;;;;;;;;;;5060082;28;20274;-86
2022/02/21 08:44:18;;;;;;;6.43;1.60;;;;;;;;;;5060731;28;20210;-84
2022/02/21 08:46:44;;;;;;;7.60;1.53;;;;;;;;;;5060150;28;20545;-86
2022/02/21 08:49:13;;;;;;;4.40;1.30;;;;;;;;;;5059043;28;20656;-84
2022/02/21 08:51:39;;;;;;;8.10;1.67;;;;;;;;;;5058709;28;20635;-85
2022/02/21 08:54:05;;;;;;;6.40;1.80;;;;;;;;;;5059166;28;20283;-85
2022/02/21 08:56:37;;;;;;;5.57;1.50;;;;;;;;;;5057402;28;20693;-85
2022/02/21 08:59:03;;;;;;;7.80;1.67;;;;;;;;;;5056397;28;20203;-84
2022/02/21 09:01:29;;;;;;;5.33;1.30;;;;;;;;;;5055107;28;20181;-84
2022/02/21 09:04:01;;;;;;;5.13;1.80;;;;;;;;;;5058433;28;20196;-83
2022/02/21 09:06:27;;;;;;;6.50;1.70;;;;;;;;;;5057182;28;20177;-84
2022/02/21 09:08:56;;;;;;;7.90;1.70;;;;;;;;;;5039275;28;20187;-84
2022/02/21 09:11:22;;;;;;;6.87;2.03;;;;;;;;;;5037783;28;20197;-84
2022/02/21 09:13:51;;;;;;;6.60;1.57;;;;;;;;;;5054901;28;20200;-84
2022/02/21 09:16:29;;;;;;;8.17;1.70;;;;;;;;;;5040648;28;20307;-83
2022/02/21 09:19:04;;;;;;;8.27;1.77;;;;;;;;;;5057407;28;20195;-83
2022/02/21 09:21:30;;;;;;;13.23;2.10;;;;;;;;;;5060319;28;20647;-84
2022/02/21 09:23:59;;;;;;;10.60;1.50;;;;;;;;;;5059685;28;20654;-84
2022/02/21 09:26:29;;;;;;;11.90;2.30;;;;;;;;;;5042161;28;20199;-84
2022/02/21 09:28:57;;;;;;;9.67;2.00;;;;;;;;;;5060558;28;20177;-84
2022/02/21 09:31:26;;;;;;;7.53;1.70;;;;;;;;;;5055799;28;20188;-84
2022/02/21 09:33:55;;;;;;;17.20;2.50;;;;;;;;;;5058348;28;20581;-84
2022/02/21 09:36:21;;;;;;;14.13;2.67;;;;;;;;;;5037010;28;20196;-83
2022/02/21 09:38:47;;;;;;;11.53;2.27;;;;;;;;;;5056280;28;20212;-84
2022/02/21 09:41:16;;;;;;;11.97;2.30;;;;;;;;;;5039099;28;20180;-82
2022/02/21 09:43:42;;;;;;;10.33;2.17;;;;;;;;;;5057970;28;20207;-86
2022/02/21 09:46:12;;;;;;;20.23;2.70;;;;;;;;;;5042426;28;20191;-83
2022/02/21 09:48:39;;;;;;;15.13;2.53;;;;;;;;;;5060695;28;20186;-84
2022/02/21 09:51:06;;;;;;;10.00;2.40;;;;;;;;;;5059623;28;20178;-85
2022/02/21 09:53:36;;;;;;;15.03;2.53;;;;;;;;;;5059340;28;20199;-84
2022/02/21 09:56:12;;;;;;;10.67;2.57;;;;;;;;;;5039771;28;20212;-85
2022/02/21 09:58:38;;;;;;;10.73;2.27;;;;;;;;;;5057901;28;20289;-82
2022/02/21 10:01:04;;;;;;;19.27;3.07;;;;;;;;;;5041177;28;20186;-82
2022/02/21 10:03:39;;;;;;;12.23;2.73;;;;;;;;;;5058860;28;20219;-83
2022/02/21 10:06:15;;;;;;;14.33;2.90;;;;;;;;;;5059155;28;20256;-82
2022/02/21 10:09:01;;;;;;;12.37;2.53;;;;;;;;;;5060206;28;20576;-83
2022/02/21 10:11:37;;;;;;;12.73;2.40;;;;;;;;;;5059130;28;20193;-83
2022/02/21 10:14:03;;;;;;;15.17;2.87;;;;;;;;;;5055057;28;20241;-83
2022/02/21 10:16:43;;;;;;;10.17;3.07;;;;;;;;;;5038249;28;20290;-84
2022/02/21 10:19:20;;;;;;;14.37;2.67;;;;;;;;;;5059709;28;20180;-84
2022/02/21 10:22:14;;;;;;;14.17;2.30;;;;;;;;;;5060245;28;20180;-83
2022/02/21 10:24:43;;;;;;;9.27;2.20;;;;;;;;;;5059010;28;20189;-85
2022/02/21 10:27:15;;;;;;;11.57;2.17;;;;;;;;;;5057337;28;20255;-83
2022/02/21 10:30:00;;;;;;;11.07;2.60;;;;;;;;;;5056504;28;20181;-84
2022/02/21 10:32:31;;;;;;;10.73;2.93;;;;;;;;;;5056917;28;20207;-84
2022/02/21 10:35:09;;;;;;;12.63;2.33;;;;;;;;;;5058146;28;20191;-84
2022/02/21 10:37:41;;;;;;;14.37;3.60;;;;;;;;;;5059272;28;20193;-82
2022/02/21 10:40:08;;;;;;;9.37;2.40;;;;;;;;;;5047229;28;20184;-82
2022/02/21 10:42:34;;;;;;;10.67;2.70;;;;;;;;;;5055816;28;20193;-84
2022/02/21 10:45:18;;;;;;;11.97;2.23;;;;;;;;;;5049926;28;20184;-82
2022/02/21 10:48:07;;;;;;;12.73;2.70;;;;;;;;;;5051376;28;20234;-82
2022/02/21 10:50:41;;;;;;;14.00;2.30;;;;;;;;;;5042731;28;20551;-83
2022/02/21 10:53:25;;;;;;;13.37;2.43;;;;;;;;;;5047408;28;20209;-83
2022/02/21 10:55:54;;;;;;;12.43;2.43;;;;;;;;;;5050669;28;20356;-83
2022/02/21 10:58:24;;;;;;;16.23;2.40;;;;;;;;;;5051593;28;20185;-83
2022/02/21 11:00:53;;;;;;;9.53;2.63;;;;;;;;;;5057660;28;21282;-82
2022/02/21 11:03:47;;;;;;;13.90;2.80;;;;;;;;;;5048406;28;20254;-84
2022/02/21 11:06:16;;;;;;;9.40;3.07;;;;;;;;;;5030080;28;20284;-85
2022/02/21 11:08:45;;;;;;;11.00;2.60;;;;;;;;;;5055238;28;20194;-83
2022/02/21 11:11:12;;;;;;;7.40;2.63;;;;;;;;;;5055226;28;20220;-82
2022/02/21 11:13:39;;;;;;;8.47;2.00;;;;;;;;;;5056502;28;20201;-83
2022/02/21 11:16:09;;;;;;;10.53;2.90;;;;;;;;;;5053499;28;20259;-84
2022/02/21 11:18:35;;;;;;;13.70;1.90;;;;;;;;;;5035066;28;20652;-83
2022/02/21 11:21:07;;;;;;;8.97;2.33;;;;;;;;;;5036294;28;20171;-83
2022/02/21 11:23:33;;;;;;;10.27;2.93;;;;;;;;;;5053913;28;20209;-83
2022/02/21 11:26:05;;;;;;;12.60;2.57;;;;;;;;;;5057728;28;20193;-81
2022/02/21 11:28:43;;;;;;;9.67;1.67;;;;;;;;;;5053106;28;20199;-83
2022/02/21 11:31:14;;;;;;;9.47;1.53;;;;;;;;;;5056822;28;20184;-83
2022/02/21 11:34:05;;;;;;;5.97;1.47;;;;;;;;;;5039408;28;20557;-83
2022/02/21 11:36:34;;;;;;;10.40;1.73;;;;;;;;;;5038975;28;20277;-84
2022/02/21 11:39:00;;;;;;;8.13;1.77;;;;;;;;;;5057098;28;20205;-84
2022/02/21 11:41:44;;;;;;;8.87;1.80;;;;;;;;;;5056935;28;20544;-83
2022/02/21 11:44:24;;;;;;;11.10;2.10;;;;;;;;;;5038547;28;20204;-84
2022/02/21 11:46:50;;;;;;;9.77;1.90;;;;;;;;;;5056454;28;20191;-83
2022/02/21 11:49:30;;;;;;;5.57;2.17;;;;;;;;;;5039953;28;20190;-84
2022/02/21 11:51:57;;;;;;;9.40;1.93;;;;;;;;;;5038262;28;20597;-84
2022/02/21 11:54:23;;;;;;;7.67;1.60;;;;;;;;;;5056693;28;20189;-84
2022/02/21 11:56:50;;;;;;;8.73;1.73;;;;;;;;;;5035484;28;20201;-85
2022/02/21 11:59:22;;;;;;;5.80;1.57;;;;;;;;;;5048393;28;20178;-85
2022/02/21 12:01:48;;;;;;;11.00;1.80;;;;;;;;;;5044661;28;20564;-84
2022/02/21 12:04:18;;;;;;;9.33;2.27;;;;;;;;;;5048692;28;20648;-84
2022/02/21 12:06:51;;;;;;;6.20;1.60;;;;;;;;;;5047221;28;20185;-85
2022/02/21 12:09:17;;;;;;;9.43;2.03;;;;;;;;;;5045439;28;20188;-83
2022/02/21 12:11:46;;;;;;;6.10;1.63;;;;;;;;;;5050119;28;20181;-82
2022/02/21 12:14:16;;;;;;;7.70;1.93;;;;;;;;;;5035930;28;20189;-84
2022/02/21 12:17:02;;;;;;;8.57;1.73;;;;;;;;;;5054990;28;20215;-84
2022/02/21 12:19:29;;;;;;;7.97;1.33;;;;;;;;;;5054085;28;20178;-86
2022/02/21 12:22:28;;;;;;;6.50;1.43;;;;;;;;;;5029986;28;20181;-86
2022/02/21 12:25:21;;;;;;;6.83;2.00;;;;;;;;;;5008513;28;20646;-86
2022/02/21 12:28:05;;;;;;;8.30;2.10;;;;;;;;;;5012075;28;20194;-84
2022/02/21 12:30:38;;;;;;;12.53;2.27;;;;;;;;;;5051721;28;20200;-86
2022/02/21 12:33:06;;;;;;;6.30;1.80;;;;;;;;;;5065641;22;20222;-83
2022/02/21 12:35:45;;;;;;;7.17;1.63;;;;;;;;;;5061129;28;20197;-83
2022/02/21 12:38:11;;;;;;;6.33;1.60;;;;;;;;;;5072069;28;20181;-83
2022/02/21 12:40:37;;;;;;;10.23;2.30;;;;;;;;;;5058293;28;20246;-83
2022/02/21 12:43:03;;;;;;;9.30;2.33;;;;;;;;;;5076515;28;20667;-84
2022/02/21 12:45:41;;;;;;;7.90;1.50;;;;;;;;;;5077478;28;20181;-83
2022/02/21 12:48:07;;;;;;;12.90;1.83;;;;;;;;;;5056548;28;20204;-83
2022/02/21 12:50:33;;;;;;;4.93;1.10;;;;;;;;;;5065746;28;20249;-82
2022/02/21 12:53:00;;;;;;;6.07;3.20;;;;;;;;;;5074999;28;20279;-83
2022/02/21 12:55:26;;;;;;;10.70;3.47;;;;;;;;;;5068281;28;20200;-83
2022/02/21 12:57:52;;;;;;;5.17;1.83;;;;;;;;;;5061971;28;20199;-83
2022/02/21 13:00:18;;;;;;;7.90;2.50;;;;;;;;;;5060086;28;20194;-83
2022/02/21 13:02:44;;;;;;;6.73;1.20;;;;;;;;;;5072786;28;20260;-83
2022/02/21 13:05:14;;;;;;;8.87;1.77;;;;;;;;;;5068304;28;20295;-83
2022/02/21 13:07:40;;;;;;;6.53;1.60;;;;;;;;;;5068688;28;20646;-83
2022/02/21 13:10:12;;;;;;;10.33;2.20;;;;;;;;;;5070405;28;20181;-83
2022/02/21 13:12:38;;;;;;;7.03;2.00;;;;;;;;;;5050128;28;20196;-83
2022/02/21 13:15:05;;;;;;;10.50;1.93;;;;;;;;;;5075403;28;20226;-83
2022/02/21 13:17:32;;;;;;;6.80;1.90;;;;;;;;;;5077091;28;20683;-83
2022/02/21 13:20:01;;;;;;;6.30;1.63;;;;;;;;;;5072517;28;20177;-84
2022/02/21 13:22:28;;;;;;;3.13;0.90;;;;;;;;;;5070909;28;20188;-83
2022/02/21 13:24:59;;;;;;;6.50;1.40;;;;;;;;;;5054951;28;20209;-82
2022/02/21 13:27:26;;;;;;;7.00;2.00;;;;;;;;;;5064081;28;20286;-83
2022/02/21 13:29:53;;;;;;;7.00;1.50;;;;;;;;;;5078939;28;20216;-83
2022/02/21 13:32:29;;;;;;;5.43;1.83;;;;;;;;;;5080103;28;20188;-83
2022/02/21 13:35:15;;;;;;;5.33;1.40;;;;;;;;;;5059146;28;20227;-83
2022/02/21 13:37:44;;;;;;;9.30;1.60;;;;;;;;;;5067522;28;20204;-84
2022/02/21 13:40:13;;;;;;;6.87;1.47;;;;;;;;;;5068026;28;20655;-83
2022/02/21 13:42:41;;;;;;;3.83;1.10;;;;;;;;;;5074943;28;20219;-83
2022/02/21 13:45:13;;;;;;;4.13;1.47;;;;;;;;;;5076266;28;20266;-83
2022/02/21 13:47:39;;;;;;;4.27;1.30;;;;;;;;;;5070201;28;20611;-83
2022/02/21 13:50:05;;;;;;;3.70;1.20;;;;;;;;;;5070782;28;20662;-83
2022/02/21 13:52:31;;;;;;;5.50;1.27;;;;;;;;;;5077926;28;20242;-83
2022/02/21 13:54:58;;;;;;;6.67;1.87;;;;;;;;;;5070707;28;20303;-83
2022/02/21 13:57:24;;;;;;;5.63;1.83;;;;;;;;;;5056091;28;20210;-83
2022/02/21 13:59:51;;;;;;;5.03;1.80;;;;;;;;;;5057609;28;20245;-83
2022/02/21 14:02:23;;;;;;;3.67;1.90;;;;;;;;;;5053125;28;20175;-83
2022/02/21 14:04:49;;;;;;;4.53;1.93;;;;;;;;;;5066803;28;20577;-83
2022/02/21 14:07:15;;;;;;;9.00;1.70;;;;;;;;;;5067796;28;20178;-83
2022/02/21 14:09:41;;;;;;;9.50;1.53;;;;;;;;;;5078901;28;20190;-83
2022/02/21 14:12:14;;;;;;;7.20;2.17;;;;;;;;;;5078559;28;20180;-83
2022/02/21 14:14:41;;;;;;;7.00;1.80;;;;;;;;;;5078812;28;20208;-83
2022/02/21 14:17:07;;;;;;;9.13;1.60;;;;;;;;;;5077544;28;20220;-82
2022/02/21 14:19:33;;;;;;;3.07;1.30;;;;;;;;;;5061576;28;20183;-82
2022/02/21 14:22:00;;;;;;;5.47;1.57;;;;;;;;;;5059189;28;20183;-83
2022/02/21 14:24:26;;;;;;;7.87;1.97;;;;;;;;;;5076839;28;20190;-83
2022/02/21 14:26:53;;;;;;;10.50;2.43;;;;;;;;;;5076724;28;20181;-83
2022/02/21 14:29:19;;;;;;;10.30;2.63;;;;;;;;;;5078155;28;20523;-84
2022/02/21 14:31:45;;;;;;;7.10;1.20;;;;;;;;;;5080185;28;20180;-83
2022/02/21 14:34:11;;;;;;;7.57;1.73;;;;;;;;;;5062449;28;20216;-83
2022/02/21 14:36:37;;;;;;;4.03;1.60;;;;;;;;;;5080400;28;20242;-83
2022/02/21 14:39:04;;;;;;;5.60;1.63;;;;;;;;;;5057330;28;20262;-83
2022/02/21 14:41:30;;;;;;;6.40;1.90;;;;;;;;;;5054568;28;20297;-83
2022/02/21 14:43:56;;;;;;;8.70;1.67;;;;;;;;;;5071038;28;20211;-82
2022/02/21 14:46:23;;;;;;;5.37;1.47;;;;;;;;;;5071742;28;20182;-83
2022/02/21 14:48:49;;;;;;;5.73;2.00;;;;;;;;;;5074306;28;20199;-83
2022/02/21 14:51:20;;;;;;;5.00;1.30;;;;;;;;;;5052241;28;20326;-83
2022/02/21 14:53:48;;;;;;;5.90;1.77;;;;;;;;;;5071032;28;20224;-83
2022/02/21 14:56:15;;;;;;;9.27;1.73;;;;;;;;;;5070674;28;20210;-83
2022/02/21 14:58:41;;;;;;;10.93;2.20;;;;;;;;;;5055774;28;20284;-83
2022/02/21 15:01:07;;;;;;;3.23;1.50;;;;;;;;;;5079728;28;20179;-84
2022/02/21 15:03:33;;;;;;;7.17;1.73;;;;;;;;;;5071810;28;20203;-82
2022/02/21 15:05:59;;;;;;;5.50;1.60;;;;;;;;;;5057345;28;20580;-83
2022/02/21 15:08:25;;;;;;;5.10;1.70;;;;;;;;;;5055787;28;20189;-83
2022/02/21 15:10:51;;;;;;;5.37;1.30;;;;;;;;;;5060300;28;20193;-82
2022/02/21 15:13:17;;;;;;;6.00;1.60;;;;;;;;;;5081592;28;20207;-82
2022/02/21 15:15:43;;;;;;;9.27;2.00;;;;;;;;;;5058174;28;20182;-83
2022/02/21 15:18:09;;;;;;;5.27;1.40;;;;;;;;;;5079288;28;20252;-83
2022/02/21 15:20:34;;;;;;;8.40;1.87;;;;;;;;;;5065557;28;20176;-83
2022/02/21 15:23:03;;;;;;;4.37;1.57;;;;;;;;;;5076386;28;20267;-83
2022/02/21 15:25:29;;;;;;;7.23;1.80;;;;;;;;;;5076132;28;20197;-83
2022/02/21 15:27:55;;;;;;;5.00;1.40;;;;;;;;;;5084824;28;20191;-83
2022/02/21 15:30:21;;;;;;;4.47;1.27;;;;;;;;;;5070251;28;20181;-83
2022/02/21 15:32:48;;;;;;;6.27;1.57;;;;;;;;;;5090258;28;20192;-83
2022/02/21 15:35:14;;;;;;;3.57;1.33;;;;;;;;;;5085838;28;20676;-82
2022/02/21 15:37:43;;;;;;;4.00;1.30;;;;;;;;;;5081964;28;20593;-83
2022/02/21 15:40:09;;;;;;;3.90;1.20;;;;;;;;;;5080141;28;20197;-82
2022/02/21 15:42:36;;;;;;;6.47;1.30;;;;;;;;;;5080370;28;20577;-82
2022/02/21 15:45:03;;;;;;;4.73;1.57;;;;;;;;;;5083302;28;20200;-82
2022/02/21 15:47:28;;;;;;;4.17;0.87;;;;;;;;;;5069807;28;20188;-83
2022/02/21 15:49:55;;;;;;;5.83;1.33;;;;;;;;;;5082116;28;20247;-83
2022/02/21 15:52:21;;;;;;;4.23;1.63;;;;;;;;;;5083485;28;20177;-83
2022/02/21 15:54:47;;;;;;;4.90;1.30;;;;;;;;;;5083529;28;20200;-83
2022/02/21 15:57:15;;;;;;;7.87;1.20;;;;;;;;;;5062403;28;20204;-83
2022/02/21 15:59:42;;;;;;;6.70;1.50;;;;;;;;;;5069438;28;20583;-82
2022/02/21 16:02:10;;;;;;;4.50;1.23;;;;;;;;;;5064514;28;20182;-83
2022/02/21 16:04:36;;;;;;;7.63;1.60;;;;;;;;;;5080635;28;20286;-83
2022/02/21 16:07:02;;;;;;;3.43;1.13;;;;;;;;;;5062474;28;20207;-83
2022/02/21 16:09:28;;;;;;;6.90;1.97;;;;;;;;;;5081111;28;20594;-83
2022/02/21 16:11:55;;;;;;;5.53;1.87;;;;;;;;;;5081639;28;20180;-83
2022/02/21 16:14:21;;;;;;;5.63;1.93;;;;;;;;;;5085066;28;20193;-83
2022/02/21 16:16:47;;;;;;;4.83;1.70;;;;;;;;;;5083235;28;20199;-83
2022/02/21 16:19:13;;;;;;;3.67;1.60;;;;;;;;;;5081335;28;20172;-83
2022/02/21 16:21:45;;;;;;;4.13;1.30;;;;;;;;;;5080424;28;20188;-83
2022/02/21 16:24:11;;;;;;;2.30;1.03;;;;;;;;;;5079149;28;20300;-83
2022/02/21 16:26:39;;;;;;;5.73;1.13;;;;;;;;;;5080576;28;20175;-82
2022/02/21 16:29:05;;;;;;;4.03;1.27;;;;;;;;;;5062619;28;20174;-83
2022/02/21 16:31:32;;;;;;;10.40;1.57;;;;;;;;;;5065118;28;20175;-83
2022/02/21 16:33:58;;;;;;;8.63;1.50;;;;;;;;;;5082152;28;20214;-83
2022/02/21 16:36:24;;;;;;;9.50;1.57;;;;;;;;;;5083481;28;20199;-83
2022/02/21 16:38:50;;;;;;;5.50;1.30;;;;;;;;;;5083996;28;20206;-83
2022/02/21 16:41:17;;;;;;;3.93;1.17;;;;;;;;;;5087543;28;20180;-83
2022/02/21 16:43:45;;;;;;;5.20;1.00;;;;;;;;;;5087365;28;20217;-83
2022/02/21 16:46:11;;;;;;;4.67;1.30;;;;;;;;;;5086410;28;20173;-82
2022/02/21 16:48:37;;;;;;;2.93;1.00;;;;;;;;;;5088822;28;20197;-83
2022/02/21 16:51:04;;;;;;;3.30;1.33;;;;;;;;;;5078805;28;20190;-82
2022/02/21 16:53:30;;;;;;;7.03;1.43;;;;;;;;;;5090806;28;20214;-83
2022/02/21 16:55:56;;;;;;;5.97;1.33;;;;;;;;;;5085335;28;20177;-82
2022/02/21 16:58:22;;;;;;;5.13;1.27;;;;;;;;;;5085098;28;20187;-83
2022/02/21 17:00:48;;;;;;;3.70;1.30;;;;;;;;;;5084136;28;20185;-82